createdAt,value
2018-06-15T00:00:04.757Z,17.51
2018-06-15T00:01:04.989Z,17.49
2018-06-15T00:02:05.220Z,17.46
2018-06-15T00:03:05.446Z,17.42
2018-06-15T00:04:05.681Z,17.49
2018-06-15T00:05:05.919Z,17.49
2018-06-15T00:06:06.146Z,17.39
2018-06-15T00:07:06.383Z,17.42
2018-06-15T00:08:06.604Z,17.41
2018-06-15T00:09:06.837Z,17.48
2018-06-15T00:10:07.072Z,17.42
2018-06-15T00:11:07.305Z,17.42
2018-06-15T00:12:07.540Z,17.29
2018-06-15T00:13:07.763Z,17.24
2018-06-15T00:14:07.994Z,17.39
2018-06-15T00:15:08.224Z,17.45
2018-06-15T00:16:08.461Z,17.56
2018-06-15T00:17:08.686Z,17.64
2018-06-15T00:18:08.916Z,17.54
2018-06-15T00:19:09.149Z,17.56
2018-06-15T00:20:09.376Z,17.63
2018-06-15T00:21:09.604Z,17.70
2018-06-15T00:22:09.834Z,17.63
2018-06-15T00:23:10.065Z,17.70
2018-06-15T00:24:10.290Z,17.65
2018-06-15T00:25:10.520Z,17.60
2018-06-15T00:26:10.750Z,17.71
2018-06-15T00:27:10.981Z,17.60
2018-06-15T00:28:11.210Z,17.68
2018-06-15T00:29:11.445Z,17.71
2018-06-15T00:30:11.668Z,17.64
2018-06-15T00:31:11.896Z,17.65
2018-06-15T00:32:12.129Z,17.68
2018-06-15T00:33:12.361Z,17.67
2018-06-15T00:34:12.591Z,17.65
2018-06-15T00:35:12.821Z,17.68
2018-06-15T00:36:13.046Z,17.67
2018-06-15T00:37:13.277Z,17.56
2018-06-15T00:38:13.505Z,17.64
2018-06-15T00:39:13.742Z,17.68
2018-06-15T00:40:13.965Z,17.59
2018-06-15T00:41:14.197Z,17.71
2018-06-15T00:42:14.426Z,17.67
2018-06-15T00:43:14.655Z,17.70
2018-06-15T00:44:14.886Z,17.65
2018-06-15T00:45:15.125Z,17.64
2018-06-15T00:46:15.345Z,17.59
2018-06-15T00:47:15.581Z,17.60
2018-06-15T00:48:15.806Z,17.64
2018-06-15T00:49:16.035Z,17.60
2018-06-15T00:50:16.264Z,17.65
2018-06-15T00:51:16.495Z,17.54
2018-06-15T00:52:16.721Z,17.57
2018-06-15T00:53:16.955Z,17.44
2018-06-15T00:54:17.184Z,17.45
2018-06-15T00:55:17.419Z,17.39
2018-06-15T00:56:17.649Z,17.42
2018-06-15T00:57:17.876Z,17.51
2018-06-15T00:58:18.107Z,17.48
2018-06-15T00:59:18.337Z,17.39
2018-06-15T01:00:18.613Z,17.49
2018-06-15T01:01:18.802Z,17.41
2018-06-15T01:02:19.034Z,17.46
2018-06-15T01:03:19.261Z,17.48
2018-06-15T01:04:19.489Z,17.52
2018-06-15T01:05:19.718Z,17.56
2018-06-15T01:06:19.957Z,17.57
2018-06-15T01:07:20.181Z,17.49
2018-06-15T01:08:20.414Z,17.42
2018-06-15T01:09:20.643Z,17.52
2018-06-15T01:10:20.877Z,17.60
2018-06-15T01:11:21.104Z,17.51
2018-06-15T01:12:21.343Z,17.52
2018-06-15T01:13:21.562Z,17.60
2018-06-15T01:14:21.794Z,17.56
2018-06-15T01:15:22.024Z,17.63
2018-06-15T01:16:22.258Z,17.57
2018-06-15T01:17:22.486Z,17.44
2018-06-15T01:18:22.715Z,17.45
2018-06-15T01:19:22.946Z,17.46
2018-06-15T01:20:23.173Z,17.56
2018-06-15T01:21:23.403Z,17.48
2018-06-15T01:22:23.638Z,17.48
2018-06-15T01:23:23.872Z,17.42
2018-06-15T01:24:24.092Z,17.45
2018-06-15T01:25:24.324Z,17.46
2018-06-15T01:26:24.549Z,17.48
2018-06-15T01:27:24.781Z,17.54
2018-06-15T01:28:25.013Z,17.51
2018-06-15T01:29:25.248Z,17.48
2018-06-15T01:30:25.473Z,17.49
2018-06-15T01:31:25.703Z,17.44
2018-06-15T01:32:25.931Z,17.44
2018-06-15T01:33:26.162Z,17.52
2018-06-15T01:34:26.395Z,17.57
2018-06-15T01:35:26.620Z,17.54
2018-06-15T01:36:26.851Z,17.51
2018-06-15T01:37:27.084Z,17.44
2018-06-15T01:38:27.310Z,17.41
2018-06-15T01:39:27.540Z,17.16
2018-06-15T01:40:27.770Z,17.08
2018-06-15T01:41:28.000Z,16.99
2018-06-15T01:42:28.229Z,16.76
2018-06-15T01:43:28.458Z,16.65
2018-06-15T01:44:28.690Z,16.78
2018-06-15T01:45:28.930Z,16.79
2018-06-15T01:46:29.149Z,16.83
2018-06-15T01:47:29.382Z,16.83
2018-06-15T01:48:29.610Z,16.99
2018-06-15T01:49:29.838Z,16.96
2018-06-15T01:50:30.070Z,17.04
2018-06-15T01:51:30.306Z,17.04
2018-06-15T01:52:30.528Z,17.01
2018-06-15T01:53:30.758Z,17.02
2018-06-15T01:54:30.988Z,16.94
2018-06-15T01:55:31.219Z,17.01
2018-06-15T01:56:31.450Z,16.89
2018-06-15T01:57:31.678Z,16.89
2018-06-15T01:58:31.918Z,17.02
2018-06-15T01:59:32.150Z,17.01
2018-06-15T02:00:32.377Z,16.97
2018-06-15T02:01:32.610Z,17.02
2018-06-15T02:02:32.841Z,16.97
2018-06-15T02:03:33.073Z,17.06
2018-06-15T02:04:33.301Z,16.99
2018-06-15T02:05:33.544Z,16.99
2018-06-15T02:06:33.773Z,16.90
2018-06-15T02:07:34.006Z,16.93
2018-06-15T02:08:34.279Z,16.91
2018-06-15T02:09:34.463Z,16.89
2018-06-15T02:10:34.691Z,16.91
2018-06-15T02:11:34.921Z,16.89
2018-06-15T02:12:35.151Z,16.89
2018-06-15T02:13:35.381Z,16.89
2018-06-15T02:14:35.612Z,16.91
2018-06-15T02:15:35.842Z,16.90
2018-06-15T02:16:36.073Z,16.94
2018-06-15T02:17:36.301Z,17.01
2018-06-15T02:18:36.531Z,16.91
2018-06-15T02:19:36.765Z,16.99
2018-06-15T02:20:36.995Z,17.05
2018-06-15T02:21:37.225Z,16.94
2018-06-15T02:22:37.452Z,16.90
2018-06-15T02:23:37.684Z,16.87
2018-06-15T02:24:37.913Z,16.94
2018-06-15T02:25:38.141Z,17.01
2018-06-15T02:26:38.371Z,17.01
2018-06-15T02:27:38.601Z,17.09
2018-06-15T02:28:38.828Z,17.09
2018-06-15T02:29:39.058Z,17.09
2018-06-15T02:30:39.288Z,17.08
2018-06-15T02:31:39.517Z,17.08
2018-06-15T02:32:39.748Z,17.08
2018-06-15T02:33:39.978Z,17.11
2018-06-15T02:34:40.216Z,17.01
2018-06-15T02:35:40.440Z,17.02
2018-06-15T02:36:40.669Z,17.08
2018-06-15T02:37:40.895Z,16.97
2018-06-15T02:38:41.127Z,17.04
2018-06-15T02:39:41.357Z,16.97
2018-06-15T02:40:41.586Z,16.93
2018-06-15T02:41:41.815Z,17.04
2018-06-15T02:42:42.044Z,17.04
2018-06-15T02:43:42.273Z,17.11
2018-06-15T02:44:42.504Z,16.97
2018-06-15T02:45:42.733Z,17.11
2018-06-15T02:46:42.963Z,16.94
2018-06-15T02:47:43.193Z,16.99
2018-06-15T02:48:43.423Z,17.09
2018-06-15T02:49:43.653Z,17.20
2018-06-15T02:50:43.883Z,17.08
2018-06-15T02:51:44.112Z,17.14
2018-06-15T02:52:44.346Z,17.06
2018-06-15T02:53:44.572Z,16.96
2018-06-15T02:54:44.797Z,17.02
2018-06-15T02:55:45.032Z,17.08
2018-06-15T02:56:45.260Z,17.09
2018-06-15T02:57:45.484Z,17.09
2018-06-15T02:58:45.722Z,17.19
2018-06-15T02:59:45.960Z,17.23
2018-06-15T03:00:46.189Z,17.11
2018-06-15T03:01:46.413Z,17.16
2018-06-15T03:02:46.641Z,17.24
2018-06-15T03:03:46.871Z,17.15
2018-06-15T03:04:47.100Z,17.16
2018-06-15T03:05:47.352Z,17.20
2018-06-15T03:06:47.559Z,17.23
2018-06-15T03:07:47.788Z,17.20
2018-06-15T03:08:48.032Z,17.14
2018-06-15T03:09:48.251Z,17.20
2018-06-15T03:10:48.487Z,17.14
2018-06-15T03:11:48.712Z,17.22
2018-06-15T03:12:48.944Z,17.19
2018-06-15T03:13:49.170Z,17.29
2018-06-15T03:14:49.402Z,17.26
2018-06-15T03:15:49.631Z,17.26
2018-06-15T03:16:49.861Z,17.24
2018-06-15T03:17:50.092Z,17.24
2018-06-15T03:18:50.323Z,17.16
2018-06-15T03:19:50.554Z,17.24
2018-06-15T03:20:50.783Z,17.06
2018-06-15T03:21:51.041Z,17.12
2018-06-15T03:22:51.241Z,17.01
2018-06-15T03:23:51.471Z,17.09
2018-06-15T03:24:51.700Z,17.12
2018-06-15T03:25:51.933Z,17.12
2018-06-15T03:26:52.166Z,17.15
2018-06-15T03:27:52.397Z,17.16
2018-06-15T03:28:52.627Z,17.19
2018-06-15T03:29:52.856Z,17.20
2018-06-15T03:30:53.090Z,16.99
2018-06-15T03:31:53.316Z,16.89
2018-06-15T03:32:53.544Z,16.93
2018-06-15T03:33:53.773Z,16.84
2018-06-15T03:34:54.004Z,16.96
2018-06-15T03:35:54.233Z,17.02
2018-06-15T03:36:54.464Z,17.11
2018-06-15T03:37:54.694Z,16.97
2018-06-15T03:38:54.925Z,16.89
2018-06-15T03:39:55.153Z,16.91
2018-06-15T03:40:55.385Z,16.78
2018-06-15T03:41:55.613Z,16.71
2018-06-15T03:42:55.846Z,16.68
2018-06-15T03:43:56.075Z,16.76
2018-06-15T03:44:56.305Z,16.69
2018-06-15T03:45:56.535Z,16.89
2018-06-15T03:46:56.771Z,16.86
2018-06-15T03:47:57.000Z,16.86
2018-06-15T03:48:57.232Z,16.89
2018-06-15T03:49:57.462Z,16.94
2018-06-15T03:50:57.689Z,16.86
2018-06-15T03:51:57.925Z,16.84
2018-06-15T03:52:58.154Z,16.86
2018-06-15T03:53:58.383Z,16.89
2018-06-15T03:54:58.611Z,16.93
2018-06-15T03:55:58.838Z,17.01
2018-06-15T03:56:59.068Z,16.99
2018-06-15T03:57:59.297Z,17.06
2018-06-15T03:58:59.529Z,17.05
2018-06-15T03:59:59.757Z,17.09
2018-06-15T04:00:59.985Z,17.04
2018-06-15T04:02:00.217Z,16.93
2018-06-15T04:03:00.445Z,17.08
2018-06-15T04:04:00.678Z,17.20
2018-06-15T04:05:00.912Z,17.26
2018-06-15T04:06:01.143Z,17.20
2018-06-15T04:07:01.411Z,17.15
2018-06-15T04:08:01.600Z,17.36
2018-06-15T04:09:01.828Z,17.31
2018-06-15T04:10:02.059Z,17.45
2018-06-15T04:11:02.287Z,17.45
2018-06-15T04:12:02.523Z,17.45
2018-06-15T04:13:02.770Z,17.41
2018-06-15T04:14:02.976Z,17.45
2018-06-15T04:15:03.207Z,17.48
2018-06-15T04:16:03.442Z,17.45
2018-06-15T04:17:03.671Z,17.51
2018-06-15T04:18:03.905Z,17.45
2018-06-15T04:19:04.133Z,17.45
2018-06-15T04:20:04.370Z,17.31
2018-06-15T04:21:04.599Z,17.36
2018-06-15T04:22:04.831Z,17.45
2018-06-15T04:23:05.068Z,17.44
2018-06-15T04:24:05.290Z,17.27
2018-06-15T04:25:05.518Z,17.20
2018-06-15T04:26:05.753Z,17.14
2018-06-15T04:27:05.984Z,17.08
2018-06-15T04:28:06.227Z,17.23
2018-06-15T04:29:06.444Z,17.19
2018-06-15T04:30:06.676Z,17.20
2018-06-15T04:31:06.904Z,17.22
2018-06-15T04:32:07.134Z,17.42
2018-06-15T04:33:07.363Z,17.46
2018-06-15T04:34:07.594Z,17.51
2018-06-15T04:35:07.821Z,17.33
2018-06-15T04:36:08.050Z,17.22
2018-06-15T04:37:08.293Z,17.22
2018-06-15T04:38:08.517Z,17.22
2018-06-15T04:39:08.746Z,17.20
2018-06-15T04:40:08.974Z,17.27
2018-06-15T04:41:09.199Z,17.22
2018-06-15T04:42:09.434Z,17.34
2018-06-15T04:43:09.661Z,17.38
2018-06-15T04:44:09.891Z,17.38
2018-06-15T04:45:10.123Z,17.38
2018-06-15T04:46:10.353Z,17.45
2018-06-15T04:47:10.579Z,17.48
2018-06-15T04:48:10.808Z,17.56
2018-06-15T04:49:11.037Z,17.46
2018-06-15T04:50:11.262Z,17.56
2018-06-15T04:51:11.495Z,17.60
2018-06-15T04:52:11.725Z,17.56
2018-06-15T04:53:11.960Z,17.49
2018-06-15T04:54:12.188Z,17.70
2018-06-15T04:55:12.419Z,17.72
2018-06-15T04:56:12.710Z,17.71
2018-06-15T04:57:12.880Z,17.71
2018-06-15T04:58:13.113Z,17.79
2018-06-15T04:59:13.345Z,17.87
2018-06-15T05:00:13.580Z,17.97
2018-06-15T05:01:13.813Z,17.98
2018-06-15T05:02:14.037Z,18.07
2018-06-15T05:03:14.272Z,18.05
2018-06-15T05:04:14.495Z,18.11
2018-06-15T05:05:14.730Z,18.22
2018-06-15T05:06:14.954Z,18.22
2018-06-15T05:07:15.185Z,18.18
2018-06-15T05:08:15.416Z,18.25
2018-06-15T05:09:15.656Z,18.16
2018-06-15T05:10:15.875Z,18.31
2018-06-15T05:11:16.112Z,18.10
2018-06-15T05:12:16.339Z,18.33
2018-06-15T05:13:16.572Z,18.35
2018-06-15T05:14:16.803Z,18.26
2018-06-15T05:15:17.032Z,18.43
2018-06-15T05:16:17.262Z,18.44
2018-06-15T05:17:17.540Z,18.52
2018-06-15T05:18:17.722Z,18.52
2018-06-15T05:19:17.953Z,18.59
2018-06-15T05:20:18.187Z,18.84
2018-06-15T05:21:18.418Z,18.88
2018-06-15T05:22:18.647Z,19.04
2018-06-15T05:23:18.873Z,19.14
2018-06-15T05:24:19.109Z,19.00
2018-06-15T05:25:19.340Z,19.08
2018-06-15T05:26:19.570Z,19.21
2018-06-15T05:27:19.803Z,19.08
2018-06-15T05:28:20.033Z,19.19
2018-06-15T05:29:20.265Z,19.16
2018-06-15T05:30:20.498Z,19.39
2018-06-15T05:31:20.731Z,19.30
2018-06-15T05:32:20.960Z,19.34
2018-06-15T05:33:21.189Z,19.37
2018-06-15T05:34:21.426Z,19.49
2018-06-15T05:35:21.694Z,19.47
2018-06-15T05:36:21.882Z,19.55
2018-06-15T05:37:22.114Z,19.52
2018-06-15T05:38:22.348Z,19.69
2018-06-15T05:39:22.573Z,19.66
2018-06-15T05:40:22.806Z,19.79
2018-06-15T05:41:23.041Z,19.66
2018-06-15T05:42:23.267Z,19.71
2018-06-15T05:43:23.502Z,19.71
2018-06-15T05:44:23.732Z,19.47
2018-06-15T05:45:23.962Z,19.79
2018-06-15T05:46:24.195Z,19.55
2018-06-15T05:47:24.431Z,19.33
2018-06-15T05:48:24.676Z,19.47
2018-06-15T05:49:24.900Z,19.29
2018-06-15T05:50:25.131Z,19.48
2018-06-15T05:51:25.360Z,19.62
2018-06-15T05:52:25.600Z,19.59
2018-06-15T05:53:25.831Z,19.76
2018-06-15T05:54:26.065Z,19.74
2018-06-15T05:55:26.294Z,19.77
2018-06-15T05:56:26.528Z,19.77
2018-06-15T05:57:26.762Z,19.76
2018-06-15T05:58:26.990Z,20.06
2018-06-15T05:59:27.219Z,20.07
2018-06-15T06:00:27.452Z,20.04
2018-06-15T06:01:27.690Z,20.18
2018-06-15T06:02:27.931Z,20.18
2018-06-15T06:03:28.161Z,20.31
2018-06-15T06:04:28.391Z,20.39
2018-06-15T06:05:28.624Z,20.51
2018-06-15T06:06:28.857Z,20.58
2018-06-15T06:07:29.093Z,20.67
2018-06-15T06:08:29.322Z,20.63
2018-06-15T06:09:29.552Z,20.72
2018-06-15T06:10:29.784Z,20.84
2018-06-15T06:11:30.019Z,20.93
2018-06-15T06:12:30.247Z,20.84
2018-06-15T06:13:30.479Z,20.90
2018-06-15T06:14:30.715Z,21.00
2018-06-15T06:15:30.938Z,21.07
2018-06-15T06:16:31.174Z,21.11
2018-06-15T06:17:31.408Z,21.17
2018-06-15T06:18:31.642Z,21.11
2018-06-15T06:19:31.874Z,21.07
2018-06-15T06:20:32.107Z,21.07
2018-06-15T06:21:32.341Z,20.96
2018-06-15T06:22:32.572Z,21.02
2018-06-15T06:23:32.805Z,21.11
2018-06-15T06:24:33.044Z,21.11
2018-06-15T06:25:33.274Z,21.15
2018-06-15T06:26:33.515Z,21.25
2018-06-15T06:27:33.737Z,21.40
2018-06-15T06:28:33.973Z,21.43
2018-06-15T06:29:34.207Z,21.42
2018-06-15T06:30:34.443Z,21.42
2018-06-15T06:31:34.676Z,21.54
2018-06-15T06:32:34.934Z,21.50
2018-06-15T06:33:35.140Z,21.54
2018-06-15T06:34:35.373Z,21.43
2018-06-15T06:35:35.611Z,21.42
2018-06-15T06:36:35.840Z,21.32
2018-06-15T06:37:36.074Z,21.46
2018-06-15T06:38:36.308Z,21.40
2018-06-15T06:39:36.542Z,21.36
2018-06-15T06:40:36.775Z,21.30
2018-06-15T06:41:37.011Z,21.48
2018-06-15T06:42:37.241Z,21.39
2018-06-15T06:43:37.475Z,21.39
2018-06-15T06:44:37.707Z,21.30
2018-06-15T06:45:37.940Z,21.35
2018-06-15T06:46:38.171Z,21.40
2018-06-15T06:47:38.405Z,21.42
2018-06-15T06:48:38.644Z,21.48
2018-06-15T06:49:38.881Z,21.43
2018-06-15T06:50:39.190Z,21.20
2018-06-15T06:51:39.347Z,21.06
2018-06-15T06:52:39.583Z,20.97
2018-06-15T06:53:39.816Z,20.80
2018-06-15T06:54:40.071Z,20.82
2018-06-15T06:55:40.280Z,20.67
2018-06-15T06:56:40.512Z,20.62
2018-06-15T06:57:40.748Z,20.60
2018-06-15T06:58:40.983Z,20.59
2018-06-15T06:59:41.209Z,20.63
2018-06-15T07:00:41.442Z,20.43
2018-06-15T07:01:41.675Z,20.63
2018-06-15T07:02:41.908Z,20.44
2018-06-15T07:03:42.144Z,20.59
2018-06-15T07:04:42.371Z,20.66
2018-06-15T07:05:42.607Z,20.62
2018-06-15T07:06:42.839Z,20.58
2018-06-15T07:07:43.070Z,20.59
2018-06-15T07:08:43.302Z,20.39
2018-06-15T07:09:43.533Z,20.36
2018-06-15T07:10:43.764Z,20.48
2018-06-15T07:11:43.999Z,20.28
2018-06-15T07:12:44.232Z,20.21
2018-06-15T07:13:44.466Z,20.29
2018-06-15T07:14:44.698Z,20.34
2018-06-15T07:15:44.931Z,20.37
2018-06-15T07:16:45.162Z,20.22
2018-06-15T07:17:45.395Z,20.25
2018-06-15T07:18:45.626Z,20.25
2018-06-15T07:19:45.859Z,20.32
2018-06-15T07:20:46.092Z,20.19
2018-06-15T07:21:46.321Z,20.41
2018-06-15T07:22:46.555Z,20.41
2018-06-15T07:23:46.787Z,20.32
2018-06-15T07:24:47.020Z,20.48
2018-06-15T07:25:47.261Z,20.50
2018-06-15T07:26:47.496Z,20.65
2018-06-15T07:27:47.728Z,20.78
2018-06-15T07:28:47.956Z,20.77
2018-06-15T07:29:48.195Z,20.80
2018-06-15T07:30:48.423Z,20.88
2018-06-15T07:31:48.658Z,20.93
2018-06-15T07:32:48.888Z,21.00
2018-06-15T07:33:49.121Z,21.14
2018-06-15T07:34:49.351Z,21.30
2018-06-15T07:35:49.584Z,21.29
2018-06-15T07:36:49.817Z,21.11
2018-06-15T07:37:50.050Z,21.25
2018-06-15T07:38:50.282Z,21.29
2018-06-15T07:39:50.516Z,21.35
2018-06-15T07:40:50.745Z,21.45
2018-06-15T07:41:50.977Z,21.43
2018-06-15T07:42:51.212Z,21.62
2018-06-15T07:43:51.445Z,21.66
2018-06-15T07:44:51.676Z,21.66
2018-06-15T07:45:51.912Z,21.66
2018-06-15T07:46:52.150Z,21.82
2018-06-15T07:47:52.378Z,21.79
2018-06-15T07:48:52.616Z,21.93
2018-06-15T07:49:52.846Z,22.04
2018-06-15T07:50:53.079Z,22.11
2018-06-15T07:51:53.311Z,22.08
2018-06-15T07:52:53.548Z,21.99
2018-06-15T07:53:53.782Z,22.08
2018-06-15T07:54:54.010Z,21.91
2018-06-15T07:55:54.241Z,21.75
2018-06-15T07:56:54.479Z,21.57
2018-06-15T07:57:54.709Z,21.54
2018-06-15T07:58:54.941Z,21.58
2018-06-15T07:59:55.177Z,21.52
2018-06-15T08:00:55.416Z,21.45
2018-06-15T08:01:55.648Z,21.52
2018-06-15T08:02:55.881Z,21.54
2018-06-15T08:03:56.115Z,21.29
2018-06-15T08:04:56.348Z,21.29
2018-06-15T08:05:56.582Z,21.46
2018-06-15T08:06:56.815Z,21.48
2018-06-15T08:07:57.047Z,21.51
2018-06-15T08:08:57.280Z,21.60
2018-06-15T08:09:57.516Z,21.66
2018-06-15T08:10:57.745Z,21.62
2018-06-15T08:11:57.978Z,21.48
2018-06-15T08:12:58.217Z,21.45
2018-06-15T08:13:58.457Z,21.54
2018-06-15T08:14:58.683Z,21.62
2018-06-15T08:15:58.923Z,21.66
2018-06-15T08:16:59.153Z,21.55
2018-06-15T08:17:59.391Z,21.66
2018-06-15T08:18:59.628Z,21.70
2018-06-15T08:19:59.856Z,21.55
2018-06-15T08:21:00.089Z,21.55
2018-06-15T08:22:00.322Z,21.43
2018-06-15T08:23:00.560Z,21.50
2018-06-15T08:24:00.789Z,21.45
2018-06-15T08:25:01.020Z,21.43
2018-06-15T08:26:01.252Z,21.46
2018-06-15T08:27:01.485Z,21.42
2018-06-15T08:28:01.723Z,21.37
2018-06-15T08:29:01.954Z,21.15
2018-06-15T08:30:02.190Z,21.12
2018-06-15T08:31:02.418Z,21.03
2018-06-15T08:32:02.654Z,21.09
2018-06-15T08:33:02.897Z,21.17
2018-06-15T08:34:03.116Z,21.22
2018-06-15T08:35:03.356Z,21.22
2018-06-15T08:36:03.588Z,21.14
2018-06-15T08:37:03.819Z,21.11
2018-06-15T08:38:04.052Z,21.06
2018-06-15T08:39:04.282Z,20.96
2018-06-15T08:40:04.509Z,20.85
2018-06-15T08:41:04.751Z,20.78
2018-06-15T08:42:04.984Z,20.77
2018-06-15T08:43:05.216Z,20.63
2018-06-15T08:44:05.449Z,20.63
2018-06-15T08:45:05.685Z,20.60
2018-06-15T08:46:05.910Z,20.63
2018-06-15T08:47:06.145Z,20.55
2018-06-15T08:48:06.377Z,20.59
2018-06-15T08:49:06.609Z,20.44
2018-06-15T08:50:06.845Z,20.52
2018-06-15T08:51:07.093Z,20.51
2018-06-15T08:52:07.321Z,20.63
2018-06-15T08:53:07.559Z,20.59
2018-06-15T08:54:07.788Z,20.59
2018-06-15T08:55:08.018Z,20.59
2018-06-15T08:56:08.253Z,20.70
2018-06-15T08:57:08.481Z,20.82
2018-06-15T08:58:08.718Z,20.80
2018-06-15T08:59:08.949Z,20.84
2018-06-15T09:00:09.180Z,20.88
2018-06-15T09:01:09.414Z,20.84
2018-06-15T09:02:09.646Z,20.81
2018-06-15T09:03:09.885Z,20.88
2018-06-15T09:04:10.117Z,21.02
2018-06-15T09:05:10.360Z,21.11
2018-06-15T09:06:10.585Z,21.20
2018-06-15T09:07:10.810Z,21.30
2018-06-15T09:08:11.047Z,21.29
2018-06-15T09:09:11.280Z,21.32
2018-06-15T09:10:11.516Z,21.30
2018-06-15T09:11:11.746Z,21.27
2018-06-15T09:12:11.980Z,21.36
2018-06-15T09:13:12.210Z,21.29
2018-06-15T09:14:12.444Z,21.32
2018-06-15T09:15:12.675Z,21.37
2018-06-15T09:16:12.908Z,21.36
2018-06-15T09:17:13.139Z,21.35
2018-06-15T09:18:13.403Z,21.30
2018-06-15T09:19:13.609Z,21.32
2018-06-15T09:20:13.841Z,21.36
2018-06-15T09:21:14.073Z,21.33
2018-06-15T09:22:14.310Z,21.33
2018-06-15T09:23:14.541Z,21.48
2018-06-15T09:24:14.773Z,21.42
2018-06-15T09:25:15.010Z,21.51
2018-06-15T09:26:15.238Z,21.40
2018-06-15T09:27:15.471Z,21.36
2018-06-15T09:28:15.703Z,21.30
2018-06-15T09:29:15.936Z,21.30
2018-06-15T09:30:16.169Z,21.29
2018-06-15T09:31:16.404Z,21.36
2018-06-15T09:32:16.639Z,21.32
2018-06-15T09:33:16.875Z,21.30
2018-06-15T09:34:17.116Z,21.30
2018-06-15T09:35:17.342Z,21.29
2018-06-15T09:36:17.575Z,21.36
2018-06-15T09:37:17.804Z,21.30
2018-06-15T09:38:18.041Z,21.42
2018-06-15T09:39:18.275Z,21.43
2018-06-15T09:40:18.508Z,21.43
2018-06-15T09:41:18.741Z,21.50
2018-06-15T09:42:18.975Z,21.54
2018-06-15T09:43:19.206Z,21.46
2018-06-15T09:44:19.438Z,21.51
2018-06-15T09:45:19.672Z,21.57
2018-06-15T09:46:19.926Z,21.60
2018-06-15T09:47:20.140Z,21.66
2018-06-15T09:48:20.377Z,21.70
2018-06-15T09:49:20.603Z,21.62
2018-06-15T09:50:20.837Z,21.75
2018-06-15T09:51:21.072Z,21.64
2018-06-15T09:52:21.305Z,21.85
2018-06-15T09:53:21.547Z,22.02
2018-06-15T09:54:21.773Z,22.14
2018-06-15T09:55:22.008Z,22.25
2018-06-15T09:56:22.237Z,22.43
2018-06-15T09:57:22.471Z,22.68
2018-06-15T09:58:22.705Z,22.66
2018-06-15T09:59:22.939Z,22.87
2018-06-15T10:00:23.178Z,23.05
2018-06-15T10:01:23.414Z,23.21
2018-06-15T10:02:23.643Z,23.34
2018-06-15T10:03:23.876Z,23.51
2018-06-15T10:04:24.110Z,23.56
2018-06-15T10:05:24.357Z,23.69
2018-06-15T10:06:24.592Z,23.80
2018-06-15T10:07:24.824Z,23.91
2018-06-15T10:08:25.058Z,24.06
2018-06-15T10:09:25.290Z,24.26
2018-06-15T10:10:25.524Z,24.17
2018-06-15T10:11:25.760Z,24.23
2018-06-15T10:12:25.998Z,24.29
2018-06-15T10:13:26.229Z,24.45
2018-06-15T10:14:26.464Z,24.50
2018-06-15T10:15:26.701Z,24.69
2018-06-15T10:16:26.934Z,24.88
2018-06-15T10:17:27.169Z,24.76
2018-06-15T10:18:27.405Z,24.88
2018-06-15T10:19:27.642Z,24.86
2018-06-15T10:20:27.870Z,24.99
2018-06-15T10:21:28.111Z,25.16
2018-06-15T10:22:28.349Z,25.17
2018-06-15T10:23:28.593Z,25.23
2018-06-15T10:24:28.817Z,25.25
2018-06-15T10:25:29.051Z,25.35
2018-06-15T10:26:29.287Z,25.23
2018-06-15T10:27:29.523Z,25.28
2018-06-15T10:28:29.759Z,25.40
2018-06-15T10:29:29.996Z,25.38
2018-06-15T10:30:30.234Z,25.44
2018-06-15T10:31:30.466Z,25.44
2018-06-15T10:32:30.701Z,25.59
2018-06-15T10:33:30.938Z,25.75
2018-06-15T10:34:31.174Z,25.75
2018-06-15T10:35:31.407Z,25.80
2018-06-15T10:36:31.645Z,25.83
2018-06-15T10:37:31.881Z,25.99
2018-06-15T10:38:32.118Z,25.91
2018-06-15T10:39:32.391Z,25.91
2018-06-15T10:40:32.590Z,25.88
2018-06-15T10:41:32.824Z,25.96
2018-06-15T10:42:33.059Z,26.21
2018-06-15T10:43:33.300Z,26.28
2018-06-15T10:44:33.533Z,26.09
2018-06-15T10:45:33.770Z,26.09
2018-06-15T10:46:34.005Z,26.10
2018-06-15T10:47:34.242Z,26.29
2018-06-15T10:48:34.486Z,26.21
2018-06-15T10:49:34.714Z,26.16
2018-06-15T10:50:34.956Z,26.09
2018-06-15T10:51:35.191Z,26.06
2018-06-15T10:52:35.426Z,26.10
2018-06-15T10:53:35.660Z,26.07
2018-06-15T10:54:35.899Z,26.10
2018-06-15T10:55:36.138Z,26.00
2018-06-15T10:56:36.373Z,25.84
2018-06-15T10:57:36.614Z,25.75
2018-06-15T10:58:36.849Z,25.58
2018-06-15T10:59:37.083Z,25.75
2018-06-15T11:00:37.321Z,25.83
2018-06-15T11:01:37.555Z,25.80
2018-06-15T11:02:37.793Z,25.81
2018-06-15T11:03:38.030Z,25.78
2018-06-15T11:04:38.267Z,25.84
2018-06-15T11:05:38.501Z,25.81
2018-06-15T11:06:38.742Z,25.87
2018-06-15T11:07:38.972Z,25.81
2018-06-15T11:08:39.209Z,25.72
2018-06-15T11:09:39.449Z,25.80
2018-06-15T11:10:39.682Z,25.75
2018-06-15T11:11:39.918Z,25.75
2018-06-15T11:12:40.155Z,25.87
2018-06-15T11:13:40.395Z,26.02
2018-06-15T11:14:40.628Z,25.93
2018-06-15T11:15:40.864Z,26.15
2018-06-15T11:16:41.101Z,26.19
2018-06-15T11:17:41.336Z,26.28
2018-06-15T11:18:41.575Z,26.38
2018-06-15T11:19:41.815Z,26.41
2018-06-15T11:20:42.056Z,26.40
2018-06-15T11:21:42.289Z,26.45
2018-06-15T11:22:42.526Z,26.43
2018-06-15T11:23:42.763Z,26.52
2018-06-15T11:24:42.996Z,26.62
2018-06-15T11:25:43.234Z,26.63
2018-06-15T11:26:43.467Z,26.81
2018-06-15T11:27:43.709Z,26.45
2018-06-15T11:28:43.944Z,26.58
2018-06-15T11:29:44.181Z,26.45
2018-06-15T11:30:44.420Z,26.84
2018-06-15T11:31:44.656Z,26.89
2018-06-15T11:32:44.892Z,26.93
2018-06-15T11:33:45.127Z,27.00
2018-06-15T11:34:45.368Z,26.97
2018-06-15T11:35:45.601Z,27.00
2018-06-15T11:36:45.837Z,27.03
2018-06-15T11:37:46.077Z,27.07
2018-06-15T11:38:46.312Z,27.05
2018-06-15T11:39:46.548Z,27.14
2018-06-15T11:40:46.787Z,27.10
2018-06-15T11:41:47.023Z,26.97
2018-06-15T11:42:47.286Z,26.81
2018-06-15T11:43:47.561Z,26.68
2018-06-15T11:44:47.756Z,26.68
2018-06-15T11:45:47.998Z,26.65
2018-06-15T11:46:48.233Z,26.62
2018-06-15T11:47:48.469Z,26.70
2018-06-15T11:48:48.705Z,26.71
2018-06-15T11:49:48.939Z,26.71
2018-06-15T11:50:49.178Z,26.68
2018-06-15T11:51:49.409Z,26.48
2018-06-15T11:52:49.653Z,26.51
2018-06-15T11:53:49.894Z,26.51
2018-06-15T11:54:50.132Z,26.47
2018-06-15T11:55:50.366Z,26.40
2018-06-15T11:56:50.601Z,26.15
2018-06-15T11:57:50.837Z,26.07
2018-06-15T11:58:51.077Z,26.05
2018-06-15T11:59:51.308Z,26.07
2018-06-15T12:00:51.547Z,26.16
2018-06-15T12:01:51.877Z,26.07
2018-06-15T12:02:52.022Z,26.09
2018-06-15T12:03:52.260Z,26.18
2018-06-15T12:04:52.497Z,26.22
2018-06-15T12:05:52.731Z,26.36
2018-06-15T12:06:52.969Z,26.15
2018-06-15T12:07:53.244Z,26.06
2018-06-15T12:08:53.445Z,26.09
2018-06-15T12:09:53.678Z,26.19
2018-06-15T12:10:53.945Z,26.28
2018-06-15T12:11:54.195Z,26.05
2018-06-15T12:12:54.435Z,25.95
2018-06-15T12:13:54.679Z,25.88
2018-06-15T12:14:54.907Z,25.83
2018-06-15T12:15:55.142Z,25.75
2018-06-15T12:16:55.377Z,25.81
2018-06-15T12:17:55.619Z,25.77
2018-06-15T12:18:55.863Z,25.69
2018-06-15T12:19:56.099Z,25.78
2018-06-15T12:20:56.338Z,25.69
2018-06-15T12:21:56.573Z,25.50
2018-06-15T12:22:56.811Z,25.54
2018-06-15T12:23:57.084Z,25.47
2018-06-15T12:24:57.287Z,25.29
2018-06-15T12:25:57.522Z,25.26
2018-06-15T12:26:57.757Z,25.36
2018-06-15T12:27:57.996Z,25.58
2018-06-15T12:28:58.245Z,25.62
2018-06-15T12:29:58.479Z,25.62
2018-06-15T12:30:58.714Z,25.66
2018-06-15T12:31:58.953Z,25.40
2018-06-15T12:32:59.198Z,25.35
2018-06-15T12:33:59.443Z,25.33
2018-06-15T12:34:59.666Z,25.38
2018-06-15T12:35:59.910Z,25.51
2018-06-15T12:37:00.149Z,25.35
2018-06-15T12:38:00.387Z,25.21
2018-06-15T12:39:00.622Z,25.06
2018-06-15T12:40:00.865Z,24.91
2018-06-15T12:41:01.104Z,24.81
2018-06-15T12:42:01.341Z,24.68
2018-06-15T12:43:01.578Z,24.63
2018-06-15T12:44:01.816Z,24.81
2018-06-15T12:45:02.052Z,24.86
2018-06-15T12:46:02.538Z,24.95
2018-06-15T12:47:02.522Z,24.76
2018-06-15T12:48:02.759Z,24.60
2018-06-15T12:49:02.994Z,24.53
2018-06-15T12:50:03.230Z,24.45
2018-06-15T12:51:03.480Z,24.36
2018-06-15T12:52:03.712Z,24.14
2018-06-15T12:53:03.949Z,24.06
2018-06-15T12:54:04.187Z,23.95
2018-06-15T12:55:04.421Z,23.99